createdAt,value
2022-08-27T00:03:15.730Z,78.07
2022-08-27T00:08:20.144Z,78.77
2022-08-27T00:13:23.148Z,79.40
2022-08-27T00:18:26.398Z,78.65
2022-08-27T00:23:31.709Z,78.93
2022-08-27T00:28:35.872Z,79.41
2022-08-27T00:33:38.887Z,79.19
2022-08-27T00:38:43.406Z,78.63
2022-08-27T00:43:49.692Z,77.75
2022-08-27T00:48:54.644Z,77.94
2022-08-27T00:54:00.158Z,78.53
2022-08-27T00:59:04.151Z,79.14
2022-08-27T01:04:07.278Z,78.27
2022-08-27T01:09:18.111Z,78.46
2022-08-27T01:14:21.239Z,79.19
2022-08-27T01:19:30.229Z,78.98
2022-08-27T01:24:37.761Z,79.71
2022-08-27T01:29:41.268Z,79.51
2022-08-27T01:34:45.163Z,78.52
2022-08-27T01:39:49.602Z,79.58
2022-08-27T01:44:55.735Z,80.23
2022-08-27T01:49:58.766Z,80.01
2022-08-27T01:55:03.412Z,79.18
2022-08-27T02:00:09.509Z,78.34
2022-08-27T02:05:39.322Z,79.69
2022-08-27T02:10:51.484Z,79.09
2022-08-27T02:15:55.100Z,79.80
2022-08-27T02:20:58.166Z,79.75
2022-08-27T02:26:02.690Z,79.87
2022-08-27T02:31:06.237Z,79.68
2022-08-27T02:36:09.759Z,79.27
2022-08-27T02:41:14.383Z,78.92
2022-08-27T02:46:17.412Z,79.20
2022-08-27T02:51:20.465Z,79.76
2022-08-27T02:56:24.845Z,80.82
2022-08-27T03:01:28.162Z,80.42
2022-08-27T03:06:31.800Z,80.63
2022-08-27T03:11:36.171Z,80.42
2022-08-27T03:16:39.815Z,79.93
2022-08-27T03:21:42.965Z,79.56
2022-08-27T03:26:59.274Z,80.08
2022-08-27T03:32:02.584Z,80.34
2022-08-27T03:37:05.776Z,80.08
2022-08-27T03:42:10.557Z,80.33
2022-08-27T03:47:13.576Z,80.87
2022-08-27T03:52:17.101Z,81.04
2022-08-27T03:57:21.586Z,80.92
2022-08-27T04:02:24.779Z,81.23
2022-08-27T04:07:28.208Z,81.84
2022-08-27T04:12:32.642Z,80.73
2022-08-27T04:17:35.688Z,80.69
2022-08-27T04:22:39.477Z,82.56
2022-08-27T04:27:44.495Z,82.22
2022-08-27T04:32:47.549Z,83.43
2022-08-27T04:37:50.628Z,82.60
2022-08-27T04:42:55.588Z,82.26
2022-08-27T04:47:58.592Z,81.69
2022-08-27T04:53:02.143Z,82.45
2022-08-27T04:58:08.921Z,84.95
2022-08-27T05:03:12.007Z,85.39
2022-08-27T05:08:15.354Z,84.67
2022-08-27T05:13:21.418Z,84.28
2022-08-27T05:18:24.448Z,83.79
2022-08-27T05:23:28.150Z,83.33
2022-08-27T05:28:32.495Z,83.30
2022-08-27T05:33:35.715Z,83.48
2022-08-27T05:38:38.723Z,83.26
2022-08-27T05:43:49.119Z,83.05
2022-08-27T05:48:58.183Z,82.71
2022-08-27T05:54:08.041Z,82.47
2022-08-27T05:59:30.541Z,82.00
2022-08-27T06:04:33.546Z,81.32
2022-08-27T06:09:36.935Z,81.75
2022-08-27T06:14:41.367Z,81.68
2022-08-27T06:19:45.837Z,81.51
2022-08-27T06:24:48.856Z,81.72
2022-08-27T06:29:53.319Z,81.65
2022-08-27T06:34:56.534Z,81.11
2022-08-27T06:39:59.638Z,80.98
2022-08-27T06:45:04.366Z,80.42
2022-08-27T06:50:08.124Z,81.13
2022-08-27T06:55:11.962Z,81.16
2022-08-27T07:00:16.861Z,81.80
2022-08-27T07:05:20.077Z,81.03
2022-08-27T07:10:23.155Z,80.79
2022-08-27T07:15:28.018Z,81.67
2022-08-27T07:20:35.107Z,80.91
2022-08-27T07:25:38.186Z,81.04
2022-08-27T07:30:42.973Z,81.37
2022-08-27T07:35:47.078Z,81.24
2022-08-27T07:40:52.365Z,80.90
2022-08-27T07:45:58.260Z,81.75
2022-08-27T07:51:03.383Z,82.01
2022-08-27T07:56:07.970Z,81.97
2022-08-27T08:01:12.612Z,81.68
2022-08-27T08:06:17.764Z,81.58
2022-08-27T08:11:21.507Z,81.94
2022-08-27T08:16:31.473Z,81.92
2022-08-27T08:21:35.362Z,81.25
2022-08-27T08:26:38.341Z,81.10
2022-08-27T08:31:43.286Z,81.56
2022-08-27T08:36:54.665Z,81.42
2022-08-27T08:42:00.333Z,81.59
2022-08-27T08:47:10.549Z,81.09
2022-08-27T08:52:31.543Z,81.05
2022-08-27T08:57:40.475Z,81.45
2022-08-27T09:02:52.355Z,80.85
2022-08-27T09:08:28.407Z,81.35
2022-08-27T09:13:28.860Z,79.82
2022-08-27T09:18:37.029Z,80.37
2022-08-27T09:23:52.530Z,80.39
2022-08-27T09:29:22.743Z,80.17
2022-08-27T09:34:34.782Z,80.91
2022-08-27T09:39:46.971Z,81.45
2022-08-27T09:44:53.568Z,81.59
2022-08-27T09:50:09.878Z,81.40
2022-08-27T09:55:13.081Z,81.57
2022-08-27T10:00:19.635Z,81.69
2022-08-27T10:05:29.662Z,81.74
2022-08-27T10:10:54.045Z,81.07
2022-08-27T10:16:16.155Z,80.65
2022-08-27T10:21:30.821Z,80.56
2022-08-27T10:26:45.708Z,80.57
2022-08-27T10:31:59.740Z,79.66
2022-08-27T10:37:19.669Z,80.69
2022-08-27T10:42:29.584Z,79.57
2022-08-27T10:47:56.617Z,80.24
2022-08-27T10:53:07.243Z,80.22
2022-08-27T10:58:27.610Z,80.32
2022-08-27T11:03:37.374Z,80.77
2022-08-27T11:08:50.998Z,79.57
2022-08-27T11:14:01.202Z,79.54
2022-08-27T11:19:14.019Z,79.71
2022-08-27T11:24:30.891Z,79.79
2022-08-27T11:29:45.647Z,80.61
2022-08-27T11:34:55.999Z,83.25
2022-08-27T11:40:20.910Z,82.51
2022-08-27T11:45:30.924Z,83.35
2022-08-27T11:50:34.069Z,80.71
2022-08-27T11:55:40.628Z,79.14
2022-08-27T12:00:44.469Z,79.45
2022-08-27T12:05:49.865Z,82.84
2022-08-27T12:11:21.336Z,84.06
2022-08-27T12:16:35.397Z,82.41
2022-08-27T12:21:50.618Z,80.92
2022-08-27T12:27:01.163Z,81.69
2022-08-27T12:32:12.612Z,80.35
2022-08-27T12:37:15.913Z,80.24
2022-08-27T12:42:23.422Z,79.14
2022-08-27T12:47:27.219Z,78.92
2022-08-27T12:52:46.317Z,79.06
2022-08-27T12:58:01.515Z,79.25
2022-08-27T13:03:27.645Z,78.66
2022-08-27T13:08:32.903Z,77.01
2022-08-27T13:13:37.572Z,80.37
2022-08-27T13:18:41.549Z,79.84
2022-08-27T13:23:55.217Z,80.76
2022-08-27T13:29:03.532Z,81.55
2022-08-27T13:34:08.196Z,83.49
2022-08-27T13:39:11.281Z,81.65
2022-08-27T13:44:20.297Z,80.74
2022-08-27T13:49:25.762Z,78.55
2022-08-27T13:54:29.548Z,79.03
2022-08-27T13:59:33.972Z,78.08
2022-08-27T14:04:39.971Z,80.16
2022-08-27T14:09:51.303Z,80.81
2022-08-27T14:15:00.554Z,80.78
2022-08-27T14:20:06.646Z,79.17
2022-08-27T14:25:13.237Z,81.14
2022-08-27T14:30:19.741Z,82.87
2022-08-27T14:35:28.423Z,83.91
2022-08-27T14:40:31.660Z,82.77
2022-08-27T14:45:39.681Z,83.20
2022-08-27T14:50:43.549Z,84.17
2022-08-27T14:55:51.552Z,83.10
2022-08-27T15:00:57.789Z,82.14
2022-08-27T15:06:00.822Z,82.19
2022-08-27T15:11:03.962Z,81.88
2022-08-27T15:16:08.562Z,81.99
2022-08-27T15:21:11.732Z,82.19
2022-08-27T15:26:14.869Z,82.36
2022-08-27T15:31:19.662Z,81.90
2022-08-27T15:36:22.782Z,80.93
2022-08-27T15:41:29.123Z,80.51
2022-08-27T15:46:34.234Z,80.54
2022-08-27T15:51:38.168Z,79.51
2022-08-27T15:56:41.206Z,80.18
2022-08-27T16:01:45.764Z,81.02
2022-08-27T16:06:49.766Z,80.87
2022-08-27T16:11:52.826Z,81.10
2022-08-27T16:16:58.702Z,80.62
2022-08-27T16:22:01.684Z,80.83
2022-08-27T16:27:05.179Z,81.01
2022-08-27T16:32:14.435Z,81.36
2022-08-27T16:37:17.595Z,81.28
2022-08-27T16:42:22.010Z,80.48
2022-08-27T16:47:26.512Z,81.61
2022-08-27T16:52:30.155Z,80.87
2022-08-27T16:57:33.128Z,80.69
2022-08-27T17:02:38.061Z,80.73
2022-08-27T17:07:41.108Z,80.16
2022-08-27T17:12:48.583Z,80.99
2022-08-27T17:17:52.942Z,81.06
2022-08-27T17:22:56.685Z,81.08
2022-08-27T17:28:00.589Z,81.56
2022-08-27T17:33:05.394Z,81.87
2022-08-27T17:38:09.680Z,81.47
2022-08-27T17:43:12.729Z,81.54
2022-08-27T17:48:18.048Z,81.61
2022-08-27T17:53:22.420Z,81.89
2022-08-27T17:58:26.189Z,81.69
2022-08-27T18:03:30.636Z,81.79
2022-08-27T18:08:50.603Z,81.38
2022-08-27T18:13:56.438Z,82.38
2022-08-27T18:19:00.857Z,82.27
2022-08-27T18:24:07.267Z,82.11
2022-08-27T18:29:11.049Z,80.93
2022-08-27T18:34:20.065Z,81.19
2022-08-27T18:39:25.667Z,80.94
2022-08-27T18:44:29.080Z,80.50
2022-08-27T18:49:33.937Z,80.83
2022-08-27T18:54:37.096Z,81.11
2022-08-27T18:59:40.312Z,81.82
2022-08-27T19:04:45.874Z,81.80
2022-08-27T19:09:49.050Z,81.95
2022-08-27T19:14:52.347Z,82.11
2022-08-27T19:19:57.714Z,82.00
2022-08-27T19:25:01.063Z,82.13
2022-08-27T19:30:04.625Z,81.77
2022-08-27T19:35:11.221Z,82.15
2022-08-27T19:40:16.006Z,81.88
2022-08-27T19:45:21.951Z,82.24
2022-08-27T19:50:27.890Z,82.55
2022-08-27T19:55:31.051Z,82.60
2022-08-27T20:00:34.163Z,82.45
2022-08-27T20:05:39.423Z,82.88
2022-08-27T20:10:42.843Z,82.53
2022-08-27T20:15:46.184Z,82.85
2022-08-27T20:20:52.599Z,82.90
2022-08-27T20:26:01.101Z,83.54
2022-08-27T20:31:04.594Z,83.97
2022-08-27T20:36:09.782Z,83.52
2022-08-27T20:41:12.800Z,84.14
2022-08-27T20:46:16.363Z,86.19
2022-08-27T20:51:21.093Z,85.83
2022-08-27T20:56:24.216Z,85.76
2022-08-27T21:01:27.431Z,86.98
2022-08-27T21:06:33.592Z,86.34
2022-08-27T21:11:36.669Z,85.88
2022-08-27T21:16:39.706Z,86.45
2022-08-27T21:21:44.190Z,87.48
2022-08-27T21:26:47.611Z,88.65
2022-08-27T21:31:51.744Z,86.49
2022-08-27T21:36:56.202Z,88.71
2022-08-27T21:42:00.725Z,87.82
2022-08-27T21:47:03.971Z,88.64
2022-08-27T21:52:08.543Z,89.41
2022-08-27T21:57:14.878Z,88.95
2022-08-27T22:02:38.860Z,89.59
2022-08-27T22:07:44.013Z,88.27
2022-08-27T22:12:47.221Z,88.09
2022-08-27T22:17:51.399Z,87.51
2022-08-27T22:22:57.083Z,87.35
2022-08-27T22:28:00.140Z,86.29
2022-08-27T22:33:03.212Z,86.45
2022-08-27T22:38:08.204Z,87.52
2022-08-27T22:43:12.103Z,87.17
2022-08-27T22:48:15.208Z,88.86
2022-08-27T22:53:19.628Z,88.40
2022-08-27T22:58:24.381Z,88.17
2022-08-27T23:03:28.276Z,88.04
2022-08-27T23:08:32.688Z,88.38
2022-08-27T23:13:35.775Z,88.06
2022-08-27T23:18:39.879Z,88.25
2022-08-27T23:23:44.335Z,88.33
2022-08-27T23:28:47.626Z,90.05
2022-08-27T23:33:53.684Z,89.58
2022-08-27T23:38:58.617Z,89.69
2022-08-27T23:44:01.980Z,90.04
2022-08-27T23:49:05.374Z,89.20
2022-08-27T23:54:10.171Z,89.12
2022-08-27T23:59:13.196Z,89.07
